sensor_id;sensor_type;location;lat;lon;timestamp;P1;durP1;ratioP1;P2;durP2;ratioP2
41167;SDS011;26906;45.658;9.272;2023-05-07T06:36:35;3.30;;;1.63;;
41167;SDS011;26906;45.658;9.272;2023-05-07T06:39:08;6.53;;;2.70;;
41167;SDS011;26906;45.658;9.272;2023-05-07T06:41:34;2.38;;;1.75;;
41167;SDS011;26906;45.658;9.272;2023-05-07T06:44:06;19.30;;;2.63;;
41167;SDS011;26906;45.658;9.272;2023-05-07T06:46:38;20.20;;;3.25;;
41167;SDS011;26906;45.658;9.272;2023-05-07T06:49:05;6.43;;;1.90;;
41167;SDS011;26906;45.658;9.272;2023-05-07T06:51:31;8.95;;;3.03;;
41167;SDS011;26906;45.658;9.272;2023-05-07T06:54:01;31.17;;;3.42;;
41167;SDS011;26906;45.658;9.272;2023-05-07T06:56:27;2.58;;;1.73;;
41167;SDS011;26906;45.658;9.272;2023-05-07T06:58:53;5.28;;;2.00;;
41167;SDS011;26906;45.658;9.272;2023-05-07T07:01:20;4.70;;;1.70;;
41167;SDS011;26906;45.658;9.272;2023-05-07T07:03:45;4.15;;;1.52;;
41167;SDS011;26906;45.658;9.272;2023-05-07T07:06:12;3.35;;;1.50;;
41167;SDS011;26906;45.658;9.272;2023-05-07T07:08:39;11.40;;;2.80;;
41167;SDS011;26906;45.658;9.272;2023-05-07T07:11:05;2.33;;;1.50;;
41167;SDS011;26906;45.658;9.272;2023-05-07T07:13:31;2.90;;;1.65;;
41167;SDS011;26906;45.658;9.272;2023-05-07T07:15:58;17.48;;;2.20;;
41167;SDS011;26906;45.658;9.272;2023-05-07T07:18:25;3.15;;;1.33;;
41167;SDS011;26906;45.658;9.272;2023-05-07T07:20:52;4.68;;;1.40;;
41167;SDS011;26906;45.658;9.272;2023-05-07T07:23:18;5.28;;;1.60;;
41167;SDS011;26906;45.658;9.272;2023-05-07T07:25:46;7.22;;;2.05;;
41167;SDS011;26906;45.658;9.272;2023-05-07T07:28:12;5.88;;;1.70;;
41167;SDS011;26906;45.658;9.272;2023-05-07T07:30:38;2.25;;;1.50;;
41167;SDS011;26906;45.658;9.272;2023-05-07T07:33:04;4.80;;;1.20;;
41167;SDS011;26906;45.658;9.272;2023-05-07T07:35:34;6.47;;;1.80;;
41167;SDS011;26906;45.658;9.272;2023-05-07T07:38:00;4.53;;;1.52;;
41167;SDS011;26906;45.658;9.272;2023-05-07T07:40:27;2.53;;;1.58;;
41167;SDS011;26906;45.658;9.272;2023-05-07T07:42:56;16.20;;;2.25;;
41167;SDS011;26906;45.658;9.272;2023-05-07T07:45:22;3.40;;;1.77;;
41167;SDS011;26906;45.658;9.272;2023-05-07T07:47:49;8.88;;;1.88;;
41167;SDS011;26906;45.658;9.272;2023-05-07T07:50:15;6.38;;;1.30;;
41167;SDS011;26906;45.658;9.272;2023-05-07T07:52:42;4.50;;;1.27;;
41167;SDS011;26906;45.658;9.272;2023-05-07T07:55:09;55.92;;;3.00;;
41167;SDS011;26906;45.658;9.272;2023-05-07T07:57:36;2.75;;;1.33;;
41167;SDS011;26906;45.658;9.272;2023-05-07T08:00:02;2.80;;;1.15;;
41167;SDS011;26906;45.658;9.272;2023-05-07T08:02:30;6.45;;;1.25;;
41167;SDS011;26906;45.658;9.272;2023-05-07T08:04:56;24.77;;;2.22;;
41167;SDS011;26906;45.658;9.272;2023-05-07T08:07:22;27.73;;;2.35;;
41167;SDS011;26906;45.658;9.272;2023-05-07T08:09:48;50.35;;;3.65;;
41167;SDS011;26906;45.658;9.272;2023-05-07T08:12:16;15.90;;;2.63;;
41167;SDS011;26906;45.658;9.272;2023-05-07T08:14:42;79.10;;;5.72;;
41167;SDS011;26906;45.658;9.272;2023-05-07T08:17:09;31.13;;;3.35;;
41167;SDS011;26906;45.658;9.272;2023-05-07T08:19:36;36.72;;;3.92;;
41167;SDS011;26906;45.658;9.272;2023-05-07T08:22:03;32.08;;;3.45;;
41167;SDS011;26906;45.658;9.272;2023-05-07T08:24:33;13.07;;;2.75;;
41167;SDS011;26906;45.658;9.272;2023-05-07T08:26:58;59.53;;;5.13;;
41167;SDS011;26906;45.658;9.272;2023-05-07T08:29:24;19.08;;;2.78;;
41167;SDS011;26906;45.658;9.272;2023-05-07T08:31:51;14.75;;;3.20;;
41167;SDS011;26906;45.658;9.272;2023-05-07T08:34:16;3.65;;;1.75;;
41167;SDS011;26906;45.658;9.272;2023-05-07T08:36:45;18.40;;;2.88;;
41167;SDS011;26906;45.658;9.272;2023-05-07T08:39:15;8.52;;;2.42;;
41167;SDS011;26906;45.658;9.272;2023-05-07T08:41:46;5.13;;;2.20;;
41167;SDS011;26906;45.658;9.272;2023-05-07T08:44:14;2.88;;;1.58;;
41167;SDS011;26906;45.658;9.272;2023-05-07T08:46:41;6.75;;;2.45;;
41167;SDS011;26906;45.658;9.272;2023-05-07T08:49:11;2.88;;;1.70;;
41167;SDS011;26906;45.658;9.272;2023-05-07T08:51:37;10.60;;;2.42;;
41167;SDS011;26906;45.658;9.272;2023-05-07T08:54:03;6.82;;;2.08;;
41167;SDS011;26906;45.658;9.272;2023-05-07T08:56:32;4.82;;;1.73;;
41167;SDS011;26906;45.658;9.272;2023-05-07T08:58:58;3.42;;;1.63;;
41167;SDS011;26906;45.658;9.272;2023-05-07T09:01:26;9.00;;;2.45;;
41167;SDS011;26906;45.658;9.272;2023-05-07T09:03:53;5.35;;;1.70;;
41167;SDS011;26906;45.658;9.272;2023-05-07T09:06:21;9.27;;;2.28;;
41167;SDS011;26906;45.658;9.272;2023-05-07T09:08:50;4.43;;;1.83;;
41167;SDS011;26906;45.658;9.272;2023-05-07T09:11:23;7.38;;;2.30;;
41167;SDS011;26906;45.658;9.272;2023-05-07T09:13:54;5.32;;;2.13;;
41167;SDS011;26906;45.658;9.272;2023-05-07T09:16:23;6.50;;;2.10;;
41167;SDS011;26906;45.658;9.272;2023-05-07T09:18:53;2.63;;;1.90;;
41167;SDS011;26906;45.658;9.272;2023-05-07T09:21:21;7.63;;;2.15;;
41167;SDS011;26906;45.658;9.272;2023-05-07T09:23:53;6.45;;;2.85;;
41167;SDS011;26906;45.658;9.272;2023-05-07T09:28:49;2.70;;;2.13;;
41167;SDS011;26906;45.658;9.272;2023-05-07T09:31:15;3.90;;;1.83;;
41167;SDS011;26906;45.658;9.272;2023-05-07T09:33:41;2.55;;;1.90;;
41167;SDS011;26906;45.658;9.272;2023-05-07T09:36:10;3.65;;;2.00;;
41167;SDS011;26906;45.658;9.272;2023-05-07T09:38:38;3.90;;;1.92;;
41167;SDS011;26906;45.658;9.272;2023-05-07T09:41:06;1.80;;;1.30;;
41167;SDS011;26906;45.658;9.272;2023-05-07T09:44:02;3.00;;;2.10;;
41167;SDS011;26906;45.658;9.272;2023-05-07T09:46:35;3.63;;;1.77;;
41167;SDS011;26906;45.658;9.272;2023-05-07T09:49:07;5.85;;;2.35;;
41167;SDS011;26906;45.658;9.272;2023-05-07T09:51:43;3.35;;;1.73;;
41167;SDS011;26906;45.658;9.272;2023-05-07T09:54:18;4.90;;;1.70;;
41167;SDS011;26906;45.658;9.272;2023-05-07T09:56:50;4.72;;;2.28;;
41167;SDS011;26906;45.658;9.272;2023-05-07T09:59:19;6.57;;;2.17;;
41167;SDS011;26906;45.658;9.272;2023-05-07T10:01:46;5.28;;;2.50;;
41167;SDS011;26906;45.658;9.272;2023-05-07T10:04:14;7.80;;;2.30;;
41167;SDS011;26906;45.658;9.272;2023-05-07T10:06:42;1.88;;;1.52;;
41167;SDS011;26906;45.658;9.272;2023-05-07T10:09:10;3.55;;;1.50;;
41167;SDS011;26906;45.658;9.272;2023-05-07T10:11:36;1.90;;;1.70;;
41167;SDS011;26906;45.658;9.272;2023-05-07T10:14:03;3.10;;;1.65;;
41167;SDS011;26906;45.658;9.272;2023-05-07T10:16:34;6.70;;;2.10;;
41167;SDS011;26906;45.658;9.272;2023-05-07T10:19:04;7.95;;;2.30;;
41167;SDS011;26906;45.658;9.272;2023-05-07T10:21:31;4.20;;;1.80;;
41167;SDS011;26906;45.658;9.272;2023-05-07T10:26:44;7.55;;;1.50;;
41167;SDS011;26906;45.658;9.272;2023-05-07T10:29:15;4.78;;;1.80;;
41167;SDS011;26906;45.658;9.272;2023-05-07T10:34:39;4.57;;;2.03;;
41167;SDS011;26906;45.658;9.272;2023-05-07T10:37:08;3.50;;;1.90;;
41167;SDS011;26906;45.658;9.272;2023-05-07T10:39:35;5.40;;;1.88;;
41167;SDS011;26906;45.658;9.272;2023-05-07T10:42:12;3.97;;;2.00;;
41167;SDS011;26906;45.658;9.272;2023-05-07T10:47:19;4.50;;;1.80;;
41167;SDS011;26906;45.658;9.272;2023-05-07T10:52:38;2.03;;;1.85;;
41167;SDS011;26906;45.658;9.272;2023-05-07T10:57:56;1.60;;;1.50;;
41167;SDS011;26906;45.658;9.272;2023-05-07T11:00:42;3.45;;;1.95;;
41167;SDS011;26906;45.658;9.272;2023-05-07T11:03:12;3.33;;;1.80;;
41167;SDS011;26906;45.658;9.272;2023-05-07T11:05:52;2.30;;;2.10;;
41167;SDS011;26906;45.658;9.272;2023-05-07T11:08:58;3.83;;;1.90;;
41167;SDS011;26906;45.658;9.272;2023-05-07T11:11:47;2.30;;;2.10;;
41167;SDS011;26906;45.658;9.272;2023-05-07T11:14:48;10.10;;;2.40;;
41167;SDS011;26906;45.658;9.272;2023-05-07T11:17:32;2.35;;;1.95;;
41167;SDS011;26906;45.658;9.272;2023-05-07T11:20:04;3.40;;;2.37;;
41167;SDS011;26906;45.658;9.272;2023-05-07T11:22:53;4.82;;;2.15;;
41167;SDS011;26906;45.658;9.272;2023-05-07T11:25:29;4.32;;;2.08;;
41167;SDS011;26906;45.658;9.272;2023-05-07T11:28:11;2.33;;;2.00;;
41167;SDS011;26906;45.658;9.272;2023-05-07T11:30:44;3.15;;;2.00;;
41167;SDS011;26906;45.658;9.272;2023-05-07T11:33:16;18.13;;;3.95;;
41167;SDS011;26906;45.658;9.272;2023-05-07T11:35:42;15.50;;;2.50;;
41167;SDS011;26906;45.658;9.272;2023-05-07T11:38:12;3.72;;;2.30;;
41167;SDS011;26906;45.658;9.272;2023-05-07T11:40:52;3.15;;;1.98;;
41167;SDS011;26906;45.658;9.272;2023-05-07T11:43:34;2.35;;;2.00;;
41167;SDS011;26906;45.658;9.272;2023-05-07T11:46:08;3.25;;;2.30;;
41167;SDS011;26906;45.658;9.272;2023-05-07T11:48:35;4.85;;;2.13;;
41167;SDS011;26906;45.658;9.272;2023-05-07T11:51:02;2.15;;;1.70;;
41167;SDS011;26906;45.658;9.272;2023-05-07T11:53:35;1.90;;;1.75;;
41167;SDS011;26906;45.658;9.272;2023-05-07T11:56:09;3.75;;;2.45;;
41167;SDS011;26906;45.658;9.272;2023-05-07T11:58:36;4.40;;;1.90;;
41167;SDS011;26906;45.658;9.272;2023-05-07T12:01:02;1.67;;;1.58;;
41167;SDS011;26906;45.658;9.272;2023-05-07T12:03:28;4.97;;;2.00;;
41167;SDS011;26906;45.658;9.272;2023-05-07T12:05:55;2.95;;;1.88;;
41167;SDS011;26906;45.658;9.272;2023-05-07T12:08:22;2.92;;;2.03;;
41167;SDS011;26906;45.658;9.272;2023-05-07T12:10:50;2.00;;;1.77;;
41167;SDS011;26906;45.658;9.272;2023-05-07T12:13:23;7.53;;;2.72;;
41167;SDS011;26906;45.658;9.272;2023-05-07T12:15:54;17.73;;;3.55;;
41167;SDS011;26906;45.658;9.272;2023-05-07T12:18:21;4.15;;;1.90;;
41167;SDS011;26906;45.658;9.272;2023-05-07T12:20:48;4.28;;;1.98;;
41167;SDS011;26906;45.658;9.272;2023-05-07T12:23:14;2.28;;;2.00;;
41167;SDS011;26906;45.658;9.272;2023-05-07T12:25:41;1.80;;;1.70;;
41167;SDS011;26906;45.658;9.272;2023-05-07T12:28:13;2.65;;;1.95;;
41167;SDS011;26906;45.658;9.272;2023-05-07T12:30:43;3.20;;;2.00;;
41167;SDS011;26906;45.658;9.272;2023-05-07T12:33:10;4.55;;;2.03;;
41167;SDS011;26906;45.658;9.272;2023-05-07T12:35:58;3.53;;;1.80;;
41167;SDS011;26906;45.658;9.272;2023-05-07T12:38:32;3.20;;;2.00;;
41167;SDS011;26906;45.658;9.272;2023-05-07T12:43:28;2.95;;;2.20;;
41167;SDS011;26906;45.658;9.272;2023-05-07T12:46:05;5.05;;;1.95;;
41167;SDS011;26906;45.658;9.272;2023-05-07T12:48:32;5.07;;;1.83;;
41167;SDS011;26906;45.658;9.272;2023-05-07T12:50:59;4.85;;;1.90;;
41167;SDS011;26906;45.658;9.272;2023-05-07T12:53:26;2.55;;;2.10;;
41167;SDS011;26906;45.658;9.272;2023-05-07T12:55:56;2.63;;;2.15;;
41167;SDS011;26906;45.658;9.272;2023-05-07T12:58:24;3.55;;;2.33;;
41167;SDS011;26906;45.658;9.272;2023-05-07T13:00:55;1.85;;;1.50;;
41167;SDS011;26906;45.658;9.272;2023-05-07T13:05:54;3.60;;;2.25;;
41167;SDS011;26906;45.658;9.272;2023-05-07T13:08:27;2.78;;;2.20;;
41167;SDS011;26906;45.658;9.272;2023-05-07T13:10:53;4.07;;;2.20;;
41167;SDS011;26906;45.658;9.272;2023-05-07T13:13:22;3.75;;;2.10;;
41167;SDS011;26906;45.658;9.272;2023-05-07T13:15:47;4.07;;;2.20;;
41167;SDS011;26906;45.658;9.272;2023-05-07T13:18:14;2.45;;;2.00;;
41167;SDS011;26906;45.658;9.272;2023-05-07T13:20:39;4.10;;;1.85;;
41167;SDS011;26906;45.658;9.272;2023-05-07T13:23:05;3.50;;;2.10;;
41167;SDS011;26906;45.658;9.272;2023-05-07T13:25:31;2.83;;;2.20;;
41167;SDS011;26906;45.658;9.272;2023-05-07T13:27:57;22.88;;;3.83;;
41167;SDS011;26906;45.658;9.272;2023-05-07T13:30:23;10.75;;;3.10;;
41167;SDS011;26906;45.658;9.272;2023-05-07T13:32:48;13.00;;;3.08;;
41167;SDS011;26906;45.658;9.272;2023-05-07T13:35:15;5.22;;;2.30;;
41167;SDS011;26906;45.658;9.272;2023-05-07T13:37:43;2.50;;;2.30;;
41167;SDS011;26906;45.658;9.272;2023-05-07T13:40:09;3.00;;;2.28;;
41167;SDS011;26906;45.658;9.272;2023-05-07T13:42:35;2.55;;;2.28;;
41167;SDS011;26906;45.658;9.272;2023-05-07T13:45:01;4.95;;;2.78;;
41167;SDS011;26906;45.658;9.272;2023-05-07T13:47:30;2.78;;;2.20;;
41167;SDS011;26906;45.658;9.272;2023-05-07T13:49:55;3.58;;;2.55;;
41167;SDS011;26906;45.658;9.272;2023-05-07T13:52:21;3.42;;;2.03;;
41167;SDS011;26906;45.658;9.272;2023-05-07T13:54:47;2.58;;;2.10;;
41167;SDS011;26906;45.658;9.272;2023-05-07T13:57:14;3.03;;;2.42;;
41167;SDS011;26906;45.658;9.272;2023-05-07T13:59:40;8.70;;;2.80;;
41167;SDS011;26906;45.658;9.272;2023-05-07T14:02:07;5.82;;;2.25;;
41167;SDS011;26906;45.658;9.272;2023-05-07T14:04:37;20.25;;;3.05;;
41167;SDS011;26906;45.658;9.272;2023-05-07T14:07:03;2.40;;;2.03;;
41167;SDS011;26906;45.658;9.272;2023-05-07T14:09:28;4.60;;;2.50;;
41167;SDS011;26906;45.658;9.272;2023-05-07T14:11:56;18.55;;;3.10;;
41167;SDS011;26906;45.658;9.272;2023-05-07T14:14:23;10.90;;;2.90;;
41167;SDS011;26906;45.658;9.272;2023-05-07T14:16:48;8.15;;;2.90;;
41167;SDS011;26906;45.658;9.272;2023-05-07T14:19:14;6.93;;;2.05;;
41167;SDS011;26906;45.658;9.272;2023-05-07T14:21:40;3.70;;;2.10;;
41167;SDS011;26906;45.658;9.272;2023-05-07T14:24:06;2.97;;;2.35;;
41167;SDS011;26906;45.658;9.272;2023-05-07T14:26:33;12.63;;;3.40;;
41167;SDS011;26906;45.658;9.272;2023-05-07T14:28:59;17.67;;;2.92;;
41167;SDS011;26906;45.658;9.272;2023-05-07T14:31:25;16.05;;;3.08;;
41167;SDS011;26906;45.658;9.272;2023-05-07T14:33:52;14.75;;;3.60;;
41167;SDS011;26906;45.658;9.272;2023-05-07T14:36:18;5.15;;;2.50;;
41167;SDS011;26906;45.658;9.272;2023-05-07T14:38:51;6.68;;;2.30;;
41167;SDS011;26906;45.658;9.272;2023-05-07T14:41:18;5.97;;;2.28;;
41167;SDS011;26906;45.658;9.272;2023-05-07T14:43:44;4.75;;;2.40;;
41167;SDS011;26906;45.658;9.272;2023-05-07T14:46:16;6.00;;;2.20;;
41167;SDS011;26906;45.658;9.272;2023-05-07T14:48:43;2.65;;;2.20;;
41167;SDS011;26906;45.658;9.272;2023-05-07T14:51:10;3.17;;;2.15;;
41167;SDS011;26906;45.658;9.272;2023-05-07T14:53:36;1.92;;;1.83;;
41167;SDS011;26906;45.658;9.272;2023-05-07T14:56:01;2.30;;;2.00;;
41167;SDS011;26906;45.658;9.272;2023-05-07T14:58:28;5.03;;;2.40;;
41167;SDS011;26906;45.658;9.272;2023-05-07T15:00:55;3.28;;;2.08;;
41167;SDS011;26906;45.658;9.272;2023-05-07T15:03:21;5.15;;;2.25;;
41167;SDS011;26906;45.658;9.272;2023-05-07T15:05:46;2.75;;;2.10;;
41167;SDS011;26906;45.658;9.272;2023-05-07T15:08:17;2.10;;;1.80;;
41167;SDS011;26906;45.658;9.272;2023-05-07T15:10:43;2.15;;;1.67;;
41167;SDS011;26906;45.658;9.272;2023-05-07T15:13:10;5.65;;;1.60;;
41167;SDS011;26906;45.658;9.272;2023-05-07T15:15:38;1.65;;;1.40;;
41167;SDS011;26906;45.658;9.272;2023-05-07T15:18:04;1.80;;;1.52;;
41167;SDS011;26906;45.658;9.272;2023-05-07T15:20:30;1.98;;;1.48;;
41167;SDS011;26906;45.658;9.272;2023-05-07T15:22:58;1.60;;;1.40;;
41167;SDS011;26906;45.658;9.272;2023-05-07T15:25:24;1.88;;;1.50;;
41167;SDS011;26906;45.658;9.272;2023-05-07T15:27:50;3.05;;;1.80;;
41167;SDS011;26906;45.658;9.272;2023-05-07T15:30:17;3.85;;;1.50;;
41167;SDS011;26906;45.658;9.272;2023-05-07T15:32:45;1.73;;;1.52;;
41167;SDS011;26906;45.658;9.272;2023-05-07T15:35:10;4.47;;;1.60;;
41167;SDS011;26906;45.658;9.272;2023-05-07T15:37:36;4.35;;;1.60;;
41167;SDS011;26906;45.658;9.272;2023-05-07T15:40:02;3.17;;;1.67;;
41167;SDS011;26906;45.658;9.272;2023-05-07T15:42:30;2.88;;;1.65;;
41167;SDS011;26906;45.658;9.272;2023-05-07T15:44:56;4.05;;;1.30;;
41167;SDS011;26906;45.658;9.272;2023-05-07T15:47:22;3.03;;;1.60;;
41167;SDS011;26906;45.658;9.272;2023-05-07T15:49:49;7.00;;;2.20;;
41167;SDS011;26906;45.658;9.272;2023-05-07T15:52:15;8.15;;;2.45;;
41167;SDS011;26906;45.658;9.272;2023-05-07T15:54:42;3.85;;;1.90;;
41167;SDS011;26906;45.658;9.272;2023-05-07T15:57:08;7.03;;;2.08;;
41167;SDS011;26906;45.658;9.272;2023-05-07T15:59:36;3.03;;;2.10;;
41167;SDS011;26906;45.658;9.272;2023-05-07T16:02:01;4.00;;;2.42;;
41167;SDS011;26906;45.658;9.272;2023-05-07T16:04:28;5.40;;;1.90;;
41167;SDS011;26906;45.658;9.272;2023-05-07T16:06:54;2.50;;;2.25;;
41167;SDS011;26906;45.658;9.272;2023-05-07T16:09:21;3.13;;;1.75;;
41167;SDS011;26906;45.658;9.272;2023-05-07T16:11:49;2.72;;;1.98;;
41167;SDS011;26906;45.658;9.272;2023-05-07T16:14:15;1.83;;;1.60;;
41167;SDS011;26906;45.658;9.272;2023-05-07T16:16:41;6.35;;;1.90;;
41167;SDS011;26906;45.658;9.272;2023-05-07T16:19:07;2.35;;;1.58;;
41167;SDS011;26906;45.658;9.272;2023-05-07T16:21:34;4.15;;;2.08;;
41167;SDS011;26906;45.658;9.272;2023-05-07T16:24:00;2.42;;;1.80;;
41167;SDS011;26906;45.658;9.272;2023-05-07T16:26:26;2.08;;;1.85;;
41167;SDS011;26906;45.658;9.272;2023-05-07T16:28:52;2.28;;;1.60;;
41167;SDS011;26906;45.658;9.272;2023-05-07T16:31:17;3.05;;;1.75;;
41167;SDS011;26906;45.658;9.272;2023-05-07T16:33:43;2.78;;;1.48;;
41167;SDS011;26906;45.658;9.272;2023-05-07T16:36:09;1.70;;;1.52;;
41167;SDS011;26906;45.658;9.272;2023-05-07T16:38:35;3.67;;;1.70;;
41167;SDS011;26906;45.658;9.272;2023-05-07T16:41:01;2.88;;;1.48;;
41167;SDS011;26906;45.658;9.272;2023-05-07T16:43:27;2.70;;;1.35;;
41167;SDS011;26906;45.658;9.272;2023-05-07T16:45:52;3.58;;;1.60;;
41167;SDS011;26906;45.658;9.272;2023-05-07T16:48:19;4.45;;;1.70;;
41167;SDS011;26906;45.658;9.272;2023-05-07T16:50:45;2.53;;;1.50;;
41167;SDS011;26906;45.658;9.272;2023-05-07T16:53:12;1.50;;;1.25;;
41167;SDS011;26906;45.658;9.272;2023-05-07T16:55:37;2.45;;;1.65;;
41167;SDS011;26906;45.658;9.272;2023-05-07T16:58:07;1.70;;;1.48;;
41167;SDS011;26906;45.658;9.272;2023-05-07T17:00:35;4.70;;;2.03;;
41167;SDS011;26906;45.658;9.272;2023-05-07T17:03:03;5.35;;;1.50;;
41167;SDS011;26906;45.658;9.272;2023-05-07T17:05:30;2.08;;;1.50;;
41167;SDS011;26906;45.658;9.272;2023-05-07T17:07:56;2.92;;;1.60;;
41167;SDS011;26906;45.658;9.272;2023-05-07T17:10:22;3.03;;;1.80;;
41167;SDS011;26906;45.658;9.272;2023-05-07T17:12:49;2.83;;;1.60;;
41167;SDS011;26906;45.658;9.272;2023-05-07T17:15:15;3.83;;;2.03;;
41167;SDS011;26906;45.658;9.272;2023-05-07T17:17:41;1.65;;;1.50;;
41167;SDS011;26906;45.658;9.272;2023-05-07T17:20:07;3.42;;;1.75;;
41167;SDS011;26906;45.658;9.272;2023-05-07T17:22:33;1.98;;;1.80;;
41167;SDS011;26906;45.658;9.272;2023-05-07T17:24:58;3.75;;;1.98;;
41167;SDS011;26906;45.658;9.272;2023-05-07T17:27:26;2.60;;;1.63;;
41167;SDS011;26906;45.658;9.272;2023-05-07T17:29:52;2.25;;;1.55;;
41167;SDS011;26906;45.658;9.272;2023-05-07T17:32:18;2.65;;;1.65;;
41167;SDS011;26906;45.658;9.272;2023-05-07T17:34:44;2.17;;;1.90;;
41167;SDS011;26906;45.658;9.272;2023-05-07T17:37:11;2.25;;;2.00;;
41167;SDS011;26906;45.658;9.272;2023-05-07T17:39:36;2.75;;;1.92;;
41167;SDS011;26906;45.658;9.272;2023-05-07T17:42:02;1.90;;;1.75;;
41167;SDS011;26906;45.658;9.272;2023-05-07T17:44:29;2.60;;;1.70;;
41167;SDS011;26906;45.658;9.272;2023-05-07T17:47:06;4.35;;;1.90;;
41167;SDS011;26906;45.658;9.272;2023-05-07T17:49:33;1.98;;;1.77;;
41167;SDS011;26906;45.658;9.272;2023-05-07T17:52:00;2.40;;;1.80;;
41167;SDS011;26906;45.658;9.272;2023-05-07T17:54:28;3.30;;;2.00;;
41167;SDS011;26906;45.658;9.272;2023-05-07T17:56:54;3.05;;;1.80;;
41167;SDS011;26906;45.658;9.272;2023-05-07T17:59:20;1.80;;;1.70;;
41167;SDS011;26906;45.658;9.272;2023-05-07T18:01:45;2.38;;;1.85;;
41167;SDS011;26906;45.658;9.272;2023-05-07T18:04:11;5.32;;;1.85;;
41167;SDS011;26906;45.658;9.272;2023-05-07T18:06:40;5.57;;;2.30;;
41167;SDS011;26906;45.658;9.272;2023-05-07T18:09:06;2.60;;;1.80;;
41167;SDS011;26906;45.658;9.272;2023-05-07T18:11:32;2.25;;;1.90;;
41167;SDS011;26906;45.658;9.272;2023-05-07T18:13:58;3.55;;;2.10;;
41167;SDS011;26906;45.658;9.272;2023-05-07T18:16:24;3.38;;;1.95;;
41167;SDS011;26906;45.658;9.272;2023-05-07T18:18:50;2.50;;;2.10;;
41167;SDS011;26906;45.658;9.272;2023-05-07T18:21:16;3.33;;;1.88;;
41167;SDS011;26906;45.658;9.272;2023-05-07T18:23:46;2.90;;;1.70;;
41167;SDS011;26906;45.658;9.272;2023-05-07T18:26:12;2.75;;;1.90;;
41167;SDS011;26906;45.658;9.272;2023-05-07T18:28:38;4.80;;;2.00;;
41167;SDS011;26906;45.658;9.272;2023-05-07T18:31:05;5.85;;;2.35;;
41167;SDS011;26906;45.658;9.272;2023-05-07T18:33:31;4.35;;;2.03;;
41167;SDS011;26906;45.658;9.272;2023-05-07T18:35:57;3.58;;;1.90;;
41167;SDS011;26906;45.658;9.272;2023-05-07T18:38:22;1.98;;;1.73;;
41167;SDS011;26906;45.658;9.272;2023-05-07T18:40:48;4.70;;;2.35;;
41167;SDS011;26906;45.658;9.272;2023-05-07T18:43:14;3.63;;;2.58;;
41167;SDS011;26906;45.658;9.272;2023-05-07T18:45:39;8.25;;;3.00;;
41167;SDS011;26906;45.658;9.272;2023-05-07T18:48:05;2.97;;;2.40;;
41167;SDS011;26906;45.658;9.272;2023-05-07T18:50:31;5.68;;;2.85;;
41167;SDS011;26906;45.658;9.272;2023-05-07T18:52:57;4.85;;;2.70;;
41167;SDS011;26906;45.658;9.272;2023-05-07T18:55:23;8.85;;;5.60;;
41167;SDS011;26906;45.658;9.272;2023-05-07T18:57:49;3.33;;;2.40;;
41167;SDS011;26906;45.658;9.272;2023-05-07T19:00:15;2.83;;;2.25;;
41167;SDS011;26906;45.658;9.272;2023-05-07T19:02:41;4.43;;;2.55;;
41167;SDS011;26906;45.658;9.272;2023-05-07T19:05:07;3.03;;;2.30;;
41167;SDS011;26906;45.658;9.272;2023-05-07T19:07:33;2.88;;;2.35;;
41167;SDS011;26906;45.658;9.272;2023-05-07T19:09:58;5.10;;;3.38;;
41167;SDS011;26906;45.658;9.272;2023-05-07T19:12:24;3.35;;;2.50;;
41167;SDS011;26906;45.658;9.272;2023-05-07T19:14:50;3.92;;;2.40;;
41167;SDS011;26906;45.658;9.272;2023-05-07T19:17:15;4.18;;;2.92;;
41167;SDS011;26906;45.658;9.272;2023-05-07T19:19:42;3.47;;;2.88;;
41167;SDS011;26906;45.658;9.272;2023-05-07T19:22:13;5.63;;;2.85;;
41167;SDS011;26906;45.658;9.272;2023-05-07T19:24:39;3.35;;;2.80;;
41167;SDS011;26906;45.658;9.272;2023-05-07T19:27:05;3.60;;;2.88;;
41167;SDS011;26906;45.658;9.272;2023-05-07T19:29:32;5.53;;;2.95;;
41167;SDS011;26906;45.658;9.272;2023-05-07T19:31:58;3.88;;;2.80;;
41167;SDS011;26906;45.658;9.272;2023-05-07T19:34:23;6.80;;;2.95;;
41167;SDS011;26906;45.658;9.272;2023-05-07T19:36:51;5.88;;;2.70;;
41167;SDS011;26906;45.658;9.272;2023-05-07T19:39:17;3.20;;;2.90;;
41167;SDS011;26906;45.658;9.272;2023-05-07T19:41:43;4.05;;;3.13;;
41167;SDS011;26906;45.658;9.272;2023-05-07T19:44:09;4.65;;;3.08;;
41167;SDS011;26906;45.658;9.272;2023-05-07T19:46:35;4.03;;;2.78;;
41167;SDS011;26906;45.658;9.272;2023-05-07T19:49:04;3.38;;;3.08;;
41167;SDS011;26906;45.658;9.272;2023-05-07T19:51:30;6.28;;;3.25;;
41167;SDS011;26906;45.658;9.272;2023-05-07T19:53:57;5.25;;;3.20;;
41167;SDS011;26906;45.658;9.272;2023-05-07T19:56:23;4.10;;;3.00;;
41167;SDS011;26906;45.658;9.272;2023-05-07T19:58:49;7.63;;;3.22;;
41167;SDS011;26906;45.658;9.272;2023-05-07T20:01:16;4.47;;;3.00;;
41167;SDS011;26906;45.658;9.272;2023-05-07T20:03:43;5.88;;;3.70;;
41167;SDS011;26906;45.658;9.272;2023-05-07T20:06:11;5.43;;;3.40;;
41167;SDS011;26906;45.658;9.272;2023-05-07T20:08:37;4.75;;;3.50;;
41167;SDS011;26906;45.658;9.272;2023-05-07T20:11:02;5.13;;;4.00;;
41167;SDS011;26906;45.658;9.272;2023-05-07T20:13:28;5.22;;;3.58;;
41167;SDS011;26906;45.658;9.272;2023-05-07T20:15:57;4.03;;;3.63;;
41167;SDS011;26906;45.658;9.272;2023-05-07T20:18:23;3.58;;;3.25;;
41167;SDS011;26906;45.658;9.272;2023-05-07T20:20:50;5.63;;;3.88;;
41167;SDS011;26906;45.658;9.272;2023-05-07T20:23:16;5.55;;;3.85;;
41167;SDS011;26906;45.658;9.272;2023-05-07T20:25:42;3.80;;;3.50;;
41167;SDS011;26906;45.658;9.272;2023-05-07T20:28:07;4.07;;;3.78;;
41167;SDS011;26906;45.658;9.272;2023-05-07T20:30:33;4.82;;;4.32;;
41167;SDS011;26906;45.658;9.272;2023-05-07T20:33:00;4.85;;;3.60;;
41167;SDS011;26906;45.658;9.272;2023-05-07T20:35:28;4.30;;;3.90;;
